sensor_id;sensor_type;location;lat;lon;timestamp;P1;durP1;ratioP1;P2;durP2;ratioP2
19593;SDS011;9944;48.240;16.478;2023-02-28T00:03:15;6.77;;;4.37;;
19593;SDS011;9944;48.240;16.478;2023-02-28T00:07:19;7.60;;;4.63;;
19593;SDS011;9944;48.240;16.478;2023-02-28T00:11:22;6.27;;;4.30;;
19593;SDS011;9944;48.240;16.478;2023-02-28T00:15:26;8.20;;;4.57;;
19593;SDS011;9944;48.240;16.478;2023-02-28T00:19:29;11.50;;;5.37;;
19593;SDS011;9944;48.240;16.478;2023-02-28T00:23:33;6.40;;;4.00;;
19593;SDS011;9944;48.240;16.478;2023-02-28T00:27:37;11.87;;;4.73;;
19593;SDS011;9944;48.240;16.478;2023-02-28T00:31:42;9.47;;;4.63;;
19593;SDS011;9944;48.240;16.478;2023-02-28T00:35:45;9.40;;;4.47;;
19593;SDS011;9944;48.240;16.478;2023-02-28T00:39:52;10.80;;;5.33;;
19593;SDS011;9944;48.240;16.478;2023-02-28T00:43:56;5.70;;;4.33;;
19593;SDS011;9944;48.240;16.478;2023-02-28T00:47:59;10.77;;;5.00;;
19593;SDS011;9944;48.240;16.478;2023-02-28T00:52:02;9.10;;;5.53;;
19593;SDS011;9944;48.240;16.478;2023-02-28T00:56:07;10.20;;;5.23;;
19593;SDS011;9944;48.240;16.478;2023-02-28T01:00:11;8.97;;;5.17;;
19593;SDS011;9944;48.240;16.478;2023-02-28T01:04:17;10.17;;;5.20;;
19593;SDS011;9944;48.240;16.478;2023-02-28T01:08:20;11.57;;;5.30;;
19593;SDS011;9944;48.240;16.478;2023-02-28T01:12:25;8.30;;;5.00;;
19593;SDS011;9944;48.240;16.478;2023-02-28T01:16:31;9.77;;;5.60;;
19593;SDS011;9944;48.240;16.478;2023-02-28T01:20:36;8.77;;;5.37;;
19593;SDS011;9944;48.240;16.478;2023-02-28T01:24:39;9.17;;;5.27;;
19593;SDS011;9944;48.240;16.478;2023-02-28T01:28:48;8.40;;;5.10;;
19593;SDS011;9944;48.240;16.478;2023-02-28T01:32:52;9.93;;;4.67;;
19593;SDS011;9944;48.240;16.478;2023-02-28T01:36:55;10.90;;;5.57;;
19593;SDS011;9944;48.240;16.478;2023-02-28T01:41:00;8.50;;;5.07;;
19593;SDS011;9944;48.240;16.478;2023-02-28T01:45:10;10.23;;;5.47;;
19593;SDS011;9944;48.240;16.478;2023-02-28T01:49:22;9.13;;;5.00;;
19593;SDS011;9944;48.240;16.478;2023-02-28T01:53:29;11.03;;;5.50;;
19593;SDS011;9944;48.240;16.478;2023-02-28T01:57:35;8.07;;;4.70;;
19593;SDS011;9944;48.240;16.478;2023-02-28T02:01:45;8.87;;;5.10;;
19593;SDS011;9944;48.240;16.478;2023-02-28T02:05:48;8.97;;;5.13;;
19593;SDS011;9944;48.240;16.478;2023-02-28T02:09:58;7.67;;;4.90;;
19593;SDS011;9944;48.240;16.478;2023-02-28T02:14:17;8.93;;;5.40;;
19593;SDS011;9944;48.240;16.478;2023-02-28T02:18:44;9.07;;;5.50;;
19593;SDS011;9944;48.240;16.478;2023-02-28T02:23:06;8.93;;;5.30;;
19593;SDS011;9944;48.240;16.478;2023-02-28T02:32:08;9.63;;;5.60;;
19593;SDS011;9944;48.240;16.478;2023-02-28T02:36:27;7.13;;;4.60;;
19593;SDS011;9944;48.240;16.478;2023-02-28T02:40:36;11.37;;;5.57;;
19593;SDS011;9944;48.240;16.478;2023-02-28T02:44:46;8.93;;;5.23;;
19593;SDS011;9944;48.240;16.478;2023-02-28T02:48:53;9.07;;;5.07;;
19593;SDS011;9944;48.240;16.478;2023-02-28T02:53:01;11.43;;;4.83;;
19593;SDS011;9944;48.240;16.478;2023-02-28T02:57:08;9.47;;;5.03;;
19593;SDS011;9944;48.240;16.478;2023-02-28T03:01:17;7.73;;;5.47;;
19593;SDS011;9944;48.240;16.478;2023-02-28T03:05:30;9.47;;;5.50;;
19593;SDS011;9944;48.240;16.478;2023-02-28T03:09:49;11.50;;;5.60;;
19593;SDS011;9944;48.240;16.478;2023-02-28T03:14:03;8.20;;;5.47;;
19593;SDS011;9944;48.240;16.478;2023-02-28T03:18:19;8.87;;;5.30;;
19593;SDS011;9944;48.240;16.478;2023-02-28T03:22:31;9.60;;;5.47;;
19593;SDS011;9944;48.240;16.478;2023-02-28T03:26:52;10.10;;;5.47;;
19593;SDS011;9944;48.240;16.478;2023-02-28T03:31:03;8.30;;;5.17;;
19593;SDS011;9944;48.240;16.478;2023-02-28T03:35:14;11.40;;;5.67;;
19593;SDS011;9944;48.240;16.478;2023-02-28T03:39:24;10.47;;;5.77;;
19593;SDS011;9944;48.240;16.478;2023-02-28T03:43:48;11.30;;;5.67;;
19593;SDS011;9944;48.240;16.478;2023-02-28T03:47:53;8.77;;;5.90;;
19593;SDS011;9944;48.240;16.478;2023-02-28T03:52:00;11.47;;;5.70;;
19593;SDS011;9944;48.240;16.478;2023-02-28T03:56:07;11.10;;;5.70;;
19593;SDS011;9944;48.240;16.478;2023-02-28T04:00:17;7.77;;;4.80;;
19593;SDS011;9944;48.240;16.478;2023-02-28T04:04:24;11.13;;;5.30;;
19593;SDS011;9944;48.240;16.478;2023-02-28T04:08:27;8.27;;;4.90;;
19593;SDS011;9944;48.240;16.478;2023-02-28T04:12:30;9.47;;;5.20;;
19593;SDS011;9944;48.240;16.478;2023-02-28T04:16:35;9.73;;;5.70;;
19593;SDS011;9944;48.240;16.478;2023-02-28T04:20:40;7.13;;;4.60;;
19593;SDS011;9944;48.240;16.478;2023-02-28T04:24:43;10.17;;;5.47;;
19593;SDS011;9944;48.240;16.478;2023-02-28T04:28:46;9.20;;;5.90;;
19593;SDS011;9944;48.240;16.478;2023-02-28T04:32:51;9.63;;;5.20;;
19593;SDS011;9944;48.240;16.478;2023-02-28T04:36:54;9.70;;;5.43;;
19593;SDS011;9944;48.240;16.478;2023-02-28T04:41:13;12.40;;;6.23;;
19593;SDS011;9944;48.240;16.478;2023-02-28T04:45:17;10.80;;;5.33;;
19593;SDS011;9944;48.240;16.478;2023-02-28T04:49:21;8.80;;;5.20;;
19593;SDS011;9944;48.240;16.478;2023-02-28T04:53:24;9.70;;;5.63;;
19593;SDS011;9944;48.240;16.478;2023-02-28T04:57:27;12.67;;;5.67;;
19593;SDS011;9944;48.240;16.478;2023-02-28T05:01:32;10.17;;;6.07;;
19593;SDS011;9944;48.240;16.478;2023-02-28T05:05:39;9.73;;;5.40;;
19593;SDS011;9944;48.240;16.478;2023-02-28T05:09:42;9.03;;;5.53;;
19593;SDS011;9944;48.240;16.478;2023-02-28T05:13:45;10.47;;;5.90;;
19593;SDS011;9944;48.240;16.478;2023-02-28T05:17:48;9.53;;;5.57;;
19593;SDS011;9944;48.240;16.478;2023-02-28T05:21:53;11.47;;;5.83;;
19593;SDS011;9944;48.240;16.478;2023-02-28T05:25:57;11.13;;;6.00;;
19593;SDS011;9944;48.240;16.478;2023-02-28T05:34:20;9.43;;;5.43;;
19593;SDS011;9944;48.240;16.478;2023-02-28T05:38:25;12.87;;;6.07;;
19593;SDS011;9944;48.240;16.478;2023-02-28T05:42:29;9.80;;;5.60;;
19593;SDS011;9944;48.240;16.478;2023-02-28T05:46:32;10.43;;;5.60;;
19593;SDS011;9944;48.240;16.478;2023-02-28T05:50:35;10.77;;;5.67;;
19593;SDS011;9944;48.240;16.478;2023-02-28T05:54:39;12.87;;;6.70;;
19593;SDS011;9944;48.240;16.478;2023-02-28T05:58:43;9.73;;;5.80;;
19593;SDS011;9944;48.240;16.478;2023-02-28T06:02:46;9.53;;;5.67;;
19593;SDS011;9944;48.240;16.478;2023-02-28T06:06:49;11.33;;;5.90;;
19593;SDS011;9944;48.240;16.478;2023-02-28T06:10:53;11.70;;;6.50;;
19593;SDS011;9944;48.240;16.478;2023-02-28T06:14:57;13.20;;;6.80;;
19593;SDS011;9944;48.240;16.478;2023-02-28T06:19:01;11.73;;;6.13;;
19593;SDS011;9944;48.240;16.478;2023-02-28T06:23:06;11.03;;;6.53;;
19593;SDS011;9944;48.240;16.478;2023-02-28T06:27:10;12.40;;;6.63;;
19593;SDS011;9944;48.240;16.478;2023-02-28T06:31:15;12.33;;;6.23;;
19593;SDS011;9944;48.240;16.478;2023-02-28T06:35:19;9.90;;;6.07;;
19593;SDS011;9944;48.240;16.478;2023-02-28T06:39:23;13.47;;;6.30;;
19593;SDS011;9944;48.240;16.478;2023-02-28T06:43:28;15.27;;;6.43;;
19593;SDS011;9944;48.240;16.478;2023-02-28T06:47:33;11.40;;;6.57;;
19593;SDS011;9944;48.240;16.478;2023-02-28T06:51:36;12.47;;;6.73;;
19593;SDS011;9944;48.240;16.478;2023-02-28T06:55:40;13.00;;;6.73;;
19593;SDS011;9944;48.240;16.478;2023-02-28T06:59:45;10.00;;;5.73;;
19593;SDS011;9944;48.240;16.478;2023-02-28T07:03:48;16.33;;;7.37;;
19593;SDS011;9944;48.240;16.478;2023-02-28T07:07:53;15.73;;;6.30;;
19593;SDS011;9944;48.240;16.478;2023-02-28T07:11:56;12.53;;;6.80;;
19593;SDS011;9944;48.240;16.478;2023-02-28T07:16:02;11.70;;;6.60;;
19593;SDS011;9944;48.240;16.478;2023-02-28T07:20:07;12.47;;;6.53;;
19593;SDS011;9944;48.240;16.478;2023-02-28T07:24:11;16.53;;;7.17;;
19593;SDS011;9944;48.240;16.478;2023-02-28T07:28:17;11.83;;;6.13;;
19593;SDS011;9944;48.240;16.478;2023-02-28T07:32:21;12.63;;;6.03;;
19593;SDS011;9944;48.240;16.478;2023-02-28T07:36:25;12.43;;;6.83;;
19593;SDS011;9944;48.240;16.478;2023-02-28T07:40:28;12.20;;;6.10;;
19593;SDS011;9944;48.240;16.478;2023-02-28T07:44:31;15.47;;;7.10;;
19593;SDS011;9944;48.240;16.478;2023-02-28T07:48:36;13.43;;;6.23;;
19593;SDS011;9944;48.240;16.478;2023-02-28T07:52:40;11.83;;;6.70;;
19593;SDS011;9944;48.240;16.478;2023-02-28T07:56:43;20.70;;;7.80;;
19593;SDS011;9944;48.240;16.478;2023-02-28T08:00:46;13.13;;;6.70;;
19593;SDS011;9944;48.240;16.478;2023-02-28T08:04:51;21.97;;;6.83;;
19593;SDS011;9944;48.240;16.478;2023-02-28T08:08:54;15.57;;;7.07;;
19593;SDS011;9944;48.240;16.478;2023-02-28T08:12:58;12.60;;;6.57;;
19593;SDS011;9944;48.240;16.478;2023-02-28T08:17:01;15.50;;;7.50;;
19593;SDS011;9944;48.240;16.478;2023-02-28T08:21:09;12.43;;;7.00;;
19593;SDS011;9944;48.240;16.478;2023-02-28T08:25:13;11.87;;;6.87;;
19593;SDS011;9944;48.240;16.478;2023-02-28T08:29:16;12.20;;;7.37;;
19593;SDS011;9944;48.240;16.478;2023-02-28T08:33:19;12.50;;;7.03;;
19593;SDS011;9944;48.240;16.478;2023-02-28T08:37:23;11.20;;;6.90;;
19593;SDS011;9944;48.240;16.478;2023-02-28T08:41:27;13.87;;;7.43;;
19593;SDS011;9944;48.240;16.478;2023-02-28T08:45:31;12.93;;;6.97;;
19593;SDS011;9944;48.240;16.478;2023-02-28T08:49:34;14.30;;;7.20;;
19593;SDS011;9944;48.240;16.478;2023-02-28T08:53:39;14.63;;;7.60;;
19593;SDS011;9944;48.240;16.478;2023-02-28T08:57:42;13.23;;;7.23;;
19593;SDS011;9944;48.240;16.478;2023-02-28T09:01:45;12.45;;;7.05;;
19593;SDS011;9944;48.240;16.478;2023-02-28T09:05:52;12.57;;;7.05;;
19593;SDS011;9944;48.240;16.478;2023-02-28T09:09:57;14.63;;;7.30;;
19593;SDS011;9944;48.240;16.478;2023-02-28T09:14:00;11.30;;;6.63;;
19593;SDS011;9944;48.240;16.478;2023-02-28T09:18:05;12.00;;;6.82;;
19593;SDS011;9944;48.240;16.478;2023-02-28T09:22:08;17.33;;;7.43;;
19593;SDS011;9944;48.240;16.478;2023-02-28T09:26:17;13.80;;;7.25;;
19593;SDS011;9944;48.240;16.478;2023-02-28T09:30:22;14.13;;;7.30;;
19593;SDS011;9944;48.240;16.478;2023-02-28T09:34:25;14.90;;;7.07;;
19593;SDS011;9944;48.240;16.478;2023-02-28T09:38:29;11.70;;;7.03;;
19593;SDS011;9944;48.240;16.478;2023-02-28T09:42:33;11.60;;;7.37;;
19593;SDS011;9944;48.240;16.478;2023-02-28T09:46:38;13.30;;;7.38;;
19593;SDS011;9944;48.240;16.478;2023-02-28T09:50:45;11.07;;;6.53;;
19593;SDS011;9944;48.240;16.478;2023-02-28T09:54:50;15.67;;;7.57;;
19593;SDS011;9944;48.240;16.478;2023-02-28T09:58:56;13.98;;;7.32;;
19593;SDS011;9944;48.240;16.478;2023-02-28T10:03:14;13.00;;;7.70;;
19593;SDS011;9944;48.240;16.478;2023-02-28T10:07:36;13.07;;;7.50;;
19593;SDS011;9944;48.240;16.478;2023-02-28T10:11:48;16.00;;;8.55;;
19593;SDS011;9944;48.240;16.478;2023-02-28T10:15:59;12.88;;;7.20;;
19593;SDS011;9944;48.240;16.478;2023-02-28T10:20:07;13.00;;;7.53;;
19593;SDS011;9944;48.240;16.478;2023-02-28T10:24:18;14.52;;;7.10;;
19593;SDS011;9944;48.240;16.478;2023-02-28T10:28:23;13.52;;;7.65;;
19593;SDS011;9944;48.240;16.478;2023-02-28T10:32:30;16.30;;;7.88;;
19593;SDS011;9944;48.240;16.478;2023-02-28T10:36:35;13.20;;;7.45;;
19593;SDS011;9944;48.240;16.478;2023-02-28T10:40:38;11.30;;;6.65;;
19593;SDS011;9944;48.240;16.478;2023-02-28T10:44:41;11.75;;;6.93;;
19593;SDS011;9944;48.240;16.478;2023-02-28T10:48:59;11.38;;;6.50;;
19593;SDS011;9944;48.240;16.478;2023-02-28T10:53:14;11.60;;;6.10;;
19593;SDS011;9944;48.240;16.478;2023-02-28T10:57:27;10.52;;;6.88;;
19593;SDS011;9944;48.240;16.478;2023-02-28T11:01:35;11.23;;;6.15;;
19593;SDS011;9944;48.240;16.478;2023-02-28T11:05:41;12.00;;;6.45;;
19593;SDS011;9944;48.240;16.478;2023-02-28T11:09:46;10.55;;;6.53;;
19593;SDS011;9944;48.240;16.478;2023-02-28T11:13:52;11.25;;;6.45;;
19593;SDS011;9944;48.240;16.478;2023-02-28T11:17:57;10.02;;;6.78;;
19593;SDS011;9944;48.240;16.478;2023-02-28T11:22:04;11.75;;;6.60;;
19593;SDS011;9944;48.240;16.478;2023-02-28T11:26:09;10.50;;;6.35;;
19593;SDS011;9944;48.240;16.478;2023-02-28T11:34:36;11.18;;;6.30;;
19593;SDS011;9944;48.240;16.478;2023-02-28T11:38:42;12.68;;;6.60;;
19593;SDS011;9944;48.240;16.478;2023-02-28T11:42:48;13.95;;;7.32;;
19593;SDS011;9944;48.240;16.478;2023-02-28T11:47:00;10.73;;;6.80;;
19593;SDS011;9944;48.240;16.478;2023-02-28T11:51:13;13.73;;;7.43;;
19593;SDS011;9944;48.240;16.478;2023-02-28T11:55:25;10.00;;;6.88;;
19593;SDS011;9944;48.240;16.478;2023-02-28T11:59:35;14.15;;;6.95;;
19593;SDS011;9944;48.240;16.478;2023-02-28T12:03:54;13.65;;;6.95;;
19593;SDS011;9944;48.240;16.478;2023-02-28T12:08:11;11.18;;;6.63;;
19593;SDS011;9944;48.240;16.478;2023-02-28T12:12:31;12.93;;;7.00;;
19593;SDS011;9944;48.240;16.478;2023-02-28T12:16:49;11.63;;;6.82;;
19593;SDS011;9944;48.240;16.478;2023-02-28T12:21:04;10.05;;;6.43;;
19593;SDS011;9944;48.240;16.478;2023-02-28T12:25:37;11.02;;;6.40;;
19593;SDS011;9944;48.240;16.478;2023-02-28T12:29:51;10.65;;;6.45;;
19593;SDS011;9944;48.240;16.478;2023-02-28T12:34:00;9.10;;;6.47;;
19593;SDS011;9944;48.240;16.478;2023-02-28T12:38:09;13.38;;;6.70;;
19593;SDS011;9944;48.240;16.478;2023-02-28T12:42:17;10.73;;;6.57;;
19593;SDS011;9944;48.240;16.478;2023-02-28T12:46:27;9.75;;;5.93;;
19593;SDS011;9944;48.240;16.478;2023-02-28T12:50:35;10.80;;;6.38;;
19593;SDS011;9944;48.240;16.478;2023-02-28T12:54:41;10.40;;;5.78;;
19593;SDS011;9944;48.240;16.478;2023-02-28T12:58:50;8.95;;;5.45;;
19593;SDS011;9944;48.240;16.478;2023-02-28T13:07:45;10.07;;;6.10;;
19593;SDS011;9944;48.240;16.478;2023-02-28T13:11:58;9.60;;;5.47;;
19593;SDS011;9944;48.240;16.478;2023-02-28T13:16:03;8.70;;;5.53;;
19593;SDS011;9944;48.240;16.478;2023-02-28T13:20:14;9.80;;;5.95;;
19593;SDS011;9944;48.240;16.478;2023-02-28T13:24:38;9.00;;;5.05;;
19593;SDS011;9944;48.240;16.478;2023-02-28T13:33:25;9.55;;;5.35;;
19593;SDS011;9944;48.240;16.478;2023-02-28T13:37:34;8.65;;;5.70;;
19593;SDS011;9944;48.240;16.478;2023-02-28T13:41:50;8.02;;;5.20;;
19593;SDS011;9944;48.240;16.478;2023-02-28T13:50:14;8.45;;;5.45;;
19593;SDS011;9944;48.240;16.478;2023-02-28T13:54:32;9.30;;;5.22;;
19593;SDS011;9944;48.240;16.478;2023-02-28T13:58:51;9.30;;;5.68;;
19593;SDS011;9944;48.240;16.478;2023-02-28T14:03:04;9.82;;;5.78;;
19593;SDS011;9944;48.240;16.478;2023-02-28T14:07:18;9.70;;;5.32;;
19593;SDS011;9944;48.240;16.478;2023-02-28T14:11:26;9.57;;;5.78;;
19593;SDS011;9944;48.240;16.478;2023-02-28T14:15:50;10.65;;;6.40;;
19593;SDS011;9944;48.240;16.478;2023-02-28T14:19:59;9.68;;;5.70;;
19593;SDS011;9944;48.240;16.478;2023-02-28T14:28:40;10.90;;;6.40;;
19593;SDS011;9944;48.240;16.478;2023-02-28T14:32:58;9.00;;;5.30;;
19593;SDS011;9944;48.240;16.478;2023-02-28T14:37:14;9.25;;;5.57;;
19593;SDS011;9944;48.240;16.478;2023-02-28T14:41:23;9.55;;;5.32;;
19593;SDS011;9944;48.240;16.478;2023-02-28T14:45:31;9.15;;;5.85;;
19593;SDS011;9944;48.240;16.478;2023-02-28T14:49:41;8.85;;;5.75;;
19593;SDS011;9944;48.240;16.478;2023-02-28T14:53:47;9.50;;;5.47;;
19593;SDS011;9944;48.240;16.478;2023-02-28T14:57:53;8.77;;;5.40;;
19593;SDS011;9944;48.240;16.478;2023-02-28T15:02:18;8.13;;;5.07;;
19593;SDS011;9944;48.240;16.478;2023-02-28T15:06:25;10.35;;;5.85;;
19593;SDS011;9944;48.240;16.478;2023-02-28T15:10:31;10.60;;;6.00;;
19593;SDS011;9944;48.240;16.478;2023-02-28T15:14:34;9.07;;;5.70;;
19593;SDS011;9944;48.240;16.478;2023-02-28T15:18:42;7.93;;;5.13;;
19593;SDS011;9944;48.240;16.478;2023-02-28T15:22:51;9.45;;;5.50;;
19593;SDS011;9944;48.240;16.478;2023-02-28T15:26:59;9.45;;;5.45;;
19593;SDS011;9944;48.240;16.478;2023-02-28T15:31:16;10.82;;;5.80;;
19593;SDS011;9944;48.240;16.478;2023-02-28T15:35:26;9.35;;;5.82;;
19593;SDS011;9944;48.240;16.478;2023-02-28T15:39:48;9.57;;;5.57;;
19593;SDS011;9944;48.240;16.478;2023-02-28T15:48:29;8.27;;;5.40;;
19593;SDS011;9944;48.240;16.478;2023-02-28T15:52:34;10.48;;;5.38;;
19593;SDS011;9944;48.240;16.478;2023-02-28T15:56:44;9.90;;;5.75;;
19593;SDS011;9944;48.240;16.478;2023-02-28T16:01:00;9.13;;;5.47;;
19593;SDS011;9944;48.240;16.478;2023-02-28T16:05:20;8.25;;;5.68;;
19593;SDS011;9944;48.240;16.478;2023-02-28T16:09:29;8.70;;;5.35;;
19593;SDS011;9944;48.240;16.478;2023-02-28T16:13:37;10.48;;;5.80;;
19593;SDS011;9944;48.240;16.478;2023-02-28T16:17:40;9.02;;;5.18;;
19593;SDS011;9944;48.240;16.478;2023-02-28T16:21:43;9.45;;;5.60;;
19593;SDS011;9944;48.240;16.478;2023-02-28T16:25:46;10.75;;;5.68;;
19593;SDS011;9944;48.240;16.478;2023-02-28T16:29:51;15.02;;;6.03;;
19593;SDS011;9944;48.240;16.478;2023-02-28T16:33:55;10.45;;;6.38;;
19593;SDS011;9944;48.240;16.478;2023-02-28T16:37:59;8.93;;;6.15;;
19593;SDS011;9944;48.240;16.478;2023-02-28T16:42:03;8.88;;;5.80;;
19593;SDS011;9944;48.240;16.478;2023-02-28T16:46:08;10.30;;;6.47;;
19593;SDS011;9944;48.240;16.478;2023-02-28T16:50:14;9.68;;;6.15;;
19593;SDS011;9944;48.240;16.478;2023-02-28T16:54:19;11.98;;;6.07;;
19593;SDS011;9944;48.240;16.478;2023-02-28T16:58:23;11.85;;;6.78;;
19593;SDS011;9944;48.240;16.478;2023-02-28T17:02:29;12.50;;;7.18;;
19593;SDS011;9944;48.240;16.478;2023-02-28T17:06:32;11.77;;;6.75;;
19593;SDS011;9944;48.240;16.478;2023-02-28T17:10:35;15.43;;;6.97;;
19593;SDS011;9944;48.240;16.478;2023-02-28T17:14:38;15.10;;;7.75;;
19593;SDS011;9944;48.240;16.478;2023-02-28T17:18:43;12.73;;;6.72;;
19593;SDS011;9944;48.240;16.478;2023-02-28T17:22:46;14.00;;;7.03;;
19593;SDS011;9944;48.240;16.478;2023-02-28T17:26:49;8.77;;;5.60;;
19593;SDS011;9944;48.240;16.478;2023-02-28T17:30:52;11.20;;;6.35;;
19593;SDS011;9944;48.240;16.478;2023-02-28T17:34:57;10.85;;;6.07;;
19593;SDS011;9944;48.240;16.478;2023-02-28T17:39:00;12.13;;;6.70;;
19593;SDS011;9944;48.240;16.478;2023-02-28T17:43:04;8.68;;;6.20;;
19593;SDS011;9944;48.240;16.478;2023-02-28T17:47:08;10.30;;;6.47;;
19593;SDS011;9944;48.240;16.478;2023-02-28T17:51:16;8.18;;;5.20;;
19593;SDS011;9944;48.240;16.478;2023-02-28T17:55:20;8.35;;;5.13;;
19593;SDS011;9944;48.240;16.478;2023-02-28T17:59:23;10.40;;;5.15;;
19593;SDS011;9944;48.240;16.478;2023-02-28T18:03:26;9.02;;;5.05;;
19593;SDS011;9944;48.240;16.478;2023-02-28T18:07:30;11.95;;;5.38;;
19593;SDS011;9944;48.240;16.478;2023-02-28T18:11:33;9.50;;;5.57;;
19593;SDS011;9944;48.240;16.478;2023-02-28T18:15:45;9.98;;;5.05;;
19593;SDS011;9944;48.240;16.478;2023-02-28T18:19:48;9.90;;;5.28;;
19593;SDS011;9944;48.240;16.478;2023-02-28T18:23:54;11.65;;;5.53;;
19593;SDS011;9944;48.240;16.478;2023-02-28T18:27:57;11.82;;;6.30;;
19593;SDS011;9944;48.240;16.478;2023-02-28T18:32:00;9.32;;;5.70;;
19593;SDS011;9944;48.240;16.478;2023-02-28T18:36:04;10.57;;;6.53;;
19593;SDS011;9944;48.240;16.478;2023-02-28T18:40:10;13.82;;;6.95;;
19593;SDS011;9944;48.240;16.478;2023-02-28T18:44:15;11.88;;;6.72;;
19593;SDS011;9944;48.240;16.478;2023-02-28T18:48:21;10.73;;;6.45;;
19593;SDS011;9944;48.240;16.478;2023-02-28T18:52:24;11.18;;;6.35;;
19593;SDS011;9944;48.240;16.478;2023-02-28T18:56:29;13.07;;;6.90;;
19593;SDS011;9944;48.240;16.478;2023-02-28T19:00:32;13.38;;;7.07;;
19593;SDS011;9944;48.240;16.478;2023-02-28T19:04:36;10.98;;;6.28;;
19593;SDS011;9944;48.240;16.478;2023-02-28T19:08:42;13.95;;;7.05;;
19593;SDS011;9944;48.240;16.478;2023-02-28T19:12:46;12.05;;;6.57;;
19593;SDS011;9944;48.240;16.478;2023-02-28T19:16:49;12.52;;;7.00;;
19593;SDS011;9944;48.240;16.478;2023-02-28T19:20:53;10.50;;;6.82;;
19593;SDS011;9944;48.240;16.478;2023-02-28T19:24:56;13.48;;;7.53;;
19593;SDS011;9944;48.240;16.478;2023-02-28T19:29:02;15.23;;;7.18;;
19593;SDS011;9944;48.240;16.478;2023-02-28T19:33:05;12.82;;;7.25;;
19593;SDS011;9944;48.240;16.478;2023-02-28T19:37:09;14.05;;;7.68;;
19593;SDS011;9944;48.240;16.478;2023-02-28T19:41:12;11.43;;;6.88;;
19593;SDS011;9944;48.240;16.478;2023-02-28T19:45:18;13.43;;;6.78;;
19593;SDS011;9944;48.240;16.478;2023-02-28T19:49:21;14.47;;;7.13;;
19593;SDS011;9944;48.240;16.478;2023-02-28T19:53:26;11.97;;;7.17;;
19593;SDS011;9944;48.240;16.478;2023-02-28T19:57:31;13.73;;;8.43;;
19593;SDS011;9944;48.240;16.478;2023-02-28T20:01:35;14.10;;;7.37;;
19593;SDS011;9944;48.240;16.478;2023-02-28T20:05:38;18.30;;;8.95;;
19593;SDS011;9944;48.240;16.478;2023-02-28T20:09:41;17.58;;;8.07;;
19593;SDS011;9944;48.240;16.478;2023-02-28T20:13:46;15.10;;;8.43;;
19593;SDS011;9944;48.240;16.478;2023-02-28T20:17:50;16.48;;;8.73;;
19593;SDS011;9944;48.240;16.478;2023-02-28T20:21:54;15.88;;;8.25;;
19593;SDS011;9944;48.240;16.478;2023-02-28T20:25:57;18.02;;;9.48;;
19593;SDS011;9944;48.240;16.478;2023-02-28T20:30:01;18.23;;;10.53;;
19593;SDS011;9944;48.240;16.478;2023-02-28T20:34:06;19.55;;;9.65;;
19593;SDS011;9944;48.240;16.478;2023-02-28T20:38:10;17.95;;;9.50;;
19593;SDS011;9944;48.240;16.478;2023-02-28T20:42:13;14.80;;;8.95;;
19593;SDS011;9944;48.240;16.478;2023-02-28T20:46:16;14.60;;;8.57;;
19593;SDS011;9944;48.240;16.478;2023-02-28T20:50:21;14.88;;;7.70;;
19593;SDS011;9944;48.240;16.478;2023-02-28T20:54:24;16.63;;;8.63;;
19593;SDS011;9944;48.240;16.478;2023-02-28T20:58:29;16.10;;;9.30;;
19593;SDS011;9944;48.240;16.478;2023-02-28T21:02:34;15.77;;;8.57;;
19593;SDS011;9944;48.240;16.478;2023-02-28T21:06:40;17.80;;;8.93;;
19593;SDS011;9944;48.240;16.478;2023-02-28T21:10:46;22.77;;;9.57;;
19593;SDS011;9944;48.240;16.478;2023-02-28T21:14:49;17.83;;;8.98;;
19593;SDS011;9944;48.240;16.478;2023-02-28T21:18:52;14.77;;;8.47;;
19593;SDS011;9944;48.240;16.478;2023-02-28T21:22:57;13.83;;;8.50;;
19593;SDS011;9944;48.240;16.478;2023-02-28T21:27:00;17.77;;;8.70;;
19593;SDS011;9944;48.240;16.478;2023-02-28T21:31:04;14.13;;;8.80;;
19593;SDS011;9944;48.240;16.478;2023-02-28T21:35:10;16.33;;;8.37;;
19593;SDS011;9944;48.240;16.478;2023-02-28T21:39:15;12.60;;;7.70;;
19593;SDS011;9944;48.240;16.478;2023-02-28T21:43:20;14.87;;;8.83;;
19593;SDS011;9944;48.240;16.478;2023-02-28T21:47:23;16.80;;;9.00;;
19593;SDS011;9944;48.240;16.478;2023-02-28T21:51:27;19.80;;;10.00;;
19593;SDS011;9944;48.240;16.478;2023-02-28T21:55:34;15.30;;;8.53;;
19593;SDS011;9944;48.240;16.478;2023-02-28T21:59:37;16.50;;;9.50;;
19593;SDS011;9944;48.240;16.478;2023-02-28T22:03:40;16.40;;;9.20;;
19593;SDS011;9944;48.240;16.478;2023-02-28T22:07:43;16.57;;;9.17;;
19593;SDS011;9944;48.240;16.478;2023-02-28T22:11:48;18.73;;;9.33;;
19593;SDS011;9944;48.240;16.478;2023-02-28T22:15:51;17.33;;;9.63;;
19593;SDS011;9944;48.240;16.478;2023-02-28T22:19:54;16.23;;;9.23;;
19593;SDS011;9944;48.240;16.478;2023-02-28T22:23:57;19.60;;;9.10;;
19593;SDS011;9944;48.240;16.478;2023-02-28T22:28:04;16.83;;;9.47;;
19593;SDS011;9944;48.240;16.478;2023-02-28T22:32:12;19.53;;;9.50;;
19593;SDS011;9944;48.240;16.478;2023-02-28T22:36:17;17.33;;;9.90;;
19593;SDS011;9944;48.240;16.478;2023-02-28T22:40:21;18.57;;;9.60;;
19593;SDS011;9944;48.240;16.478;2023-02-28T22:44:26;17.03;;;9.33;;
19593;SDS011;9944;48.240;16.478;2023-02-28T22:48:29;19.63;;;10.20;;
19593;SDS011;9944;48.240;16.478;2023-02-28T22:52:32;18.57;;;9.60;;
19593;SDS011;9944;48.240;16.478;2023-02-28T22:56:35;19.93;;;10.47;;
19593;SDS011;9944;48.240;16.478;2023-02-28T23:00:40;17.73;;;9.67;;
19593;SDS011;9944;48.240;16.478;2023-02-28T23:04:43;16.57;;;9.73;;
19593;SDS011;9944;48.240;16.478;2023-02-28T23:08:46;17.70;;;10.10;;
19593;SDS011;9944;48.240;16.478;2023-02-28T23:12:49;19.37;;;9.77;;
19593;SDS011;9944;48.240;16.478;2023-02-28T23:16:55;18.13;;;10.27;;
19593;SDS011;9944;48.240;16.478;2023-02-28T23:20:58;20.03;;;9.93;;
19593;SDS011;9944;48.240;16.478;2023-02-28T23:25:01;19.30;;;9.17;;
19593;SDS011;9944;48.240;16.478;2023-02-28T23:29:05;17.97;;;9.40;;
19593;SDS011;9944;48.240;16.478;2023-02-28T23:33:09;18.70;;;9.73;;
19593;SDS011;9944;48.240;16.478;2023-02-28T23:37:12;18.67;;;10.30;;
19593;SDS011;9944;48.240;16.478;2023-02-28T23:41:15;16.73;;;9.17;;
19593;SDS011;9944;48.240;16.478;2023-02-28T23:45:20;19.90;;;10.40;;
19593;SDS011;9944;48.240;16.478;2023-02-28T23:49:24;18.27;;;9.23;;
19593;SDS011;9944;48.240;16.478;2023-02-28T23:53:30;17.60;;;9.00;;
19593;SDS011;9944;48.240;16.478;2023-02-28T23:57:34;18.90;;;10.07;;
